Time;durP1;ratioP1;P1;durP2;ratioP2;P2;SDS_P1;SDS_P2;PMS_P1;PMS_P2;Temp;Humidity;BMP_temperature;BMP_pressure;BME280_temperature;BME280_humidity;BME280_pressure;Samples;Min_cycle;Max_cycle;Signal;HPM_P1;HPM_P2
2022/01/20 00:02:16;;;;;;;0.90;0.80;;;2.70;99.90;;;;;;4969781;28;20966;-91
2022/01/20 00:04:49;;;;;;;0.90;0.80;;;2.80;99.90;;;;;;4970284;28;20445;-92
2022/01/20 00:07:41;;;;;;;0.97;0.87;;;2.80;99.90;;;;;;4954783;28;20496;-91
2022/01/20 00:26:30;;;;;;;0.80;0.80;;;2.10;99.90;;;;;;4970026;28;20528;-90
2022/01/20 00:28:59;;;;;;;0.90;0.83;;;2.10;99.90;;;;;;4953044;28;20198;-91
2022/01/20 00:31:36;;;;;;;0.87;0.83;;;2.10;99.90;;;;;;4944926;28;20472;-91
2022/01/20 00:34:12;;;;;;;1.03;0.93;;;2.10;99.90;;;;;;4955701;28;20443;-91
2022/01/20 00:39:23;;;;;;;1.00;0.90;;;2.20;99.90;;;;;;4967560;28;20997;-90
2022/01/20 00:41:48;;;;;;;0.80;0.80;;;2.20;99.90;;;;;;4954721;28;20481;-91
2022/01/20 00:44:14;;;;;;;0.80;0.80;;;2.20;99.90;;;;;;4953379;28;20264;-91
2022/01/20 00:46:40;;;;;;;0.80;0.77;;;2.20;99.90;;;;;;4950290;28;20198;-92
2022/01/20 00:49:05;;;;;;;0.90;0.80;;;2.20;99.90;;;;;;4955631;28;20216;-92
2022/01/20 00:51:31;;;;;;;1.00;0.90;;;2.30;99.90;;;;;;4950340;28;20200;-90
2022/01/20 00:53:56;;;;;;;0.97;0.87;;;2.30;99.90;;;;;;4954844;28;20202;-91
2022/01/20 00:56:22;;;;;;;0.87;0.80;;;2.30;99.90;;;;;;4951834;28;20500;-91
2022/01/20 00:58:48;;;;;;;0.83;0.80;;;2.30;99.90;;;;;;4950023;28;20196;-91
2022/01/20 01:01:15;;;;;;;0.90;0.80;;;2.30;99.90;;;;;;4956250;28;20186;-91
2022/01/20 01:03:40;;;;;;;1.00;0.90;;;2.30;99.90;;;;;;4963753;28;20206;-90
2022/01/20 01:08:55;;;;;;;0.90;0.80;;;2.20;99.90;;;;;;4925793;28;20615;-90
2022/01/20 01:11:22;;;;;;;0.90;0.80;;;2.20;99.90;;;;;;4972368;28;20890;-90
2022/01/20 01:13:51;;;;;;;1.00;0.90;;;2.20;99.90;;;;;;4948924;28;20190;-91
2022/01/20 01:16:20;;;;;;;1.00;0.90;;;2.20;99.90;;;;;;4950250;28;20448;-91
2022/01/20 01:21:45;;;;;;;1.00;0.90;;;2.20;99.90;;;;;;4968831;28;20523;-91
2022/01/20 01:24:11;;;;;;;0.80;0.80;;;2.00;99.90;;;;;;4946762;29;20474;-90
2022/01/20 01:26:36;;;;;;;0.80;0.70;;;2.00;99.90;;;;;;4967471;28;20513;-91
2022/01/20 01:29:11;;;;;;;0.97;0.90;;;1.90;99.90;;;;;;4972868;28;20178;-90
2022/01/20 01:31:39;;;;;;;1.10;1.00;;;1.90;99.90;;;;;;4972629;28;20201;-91
2022/01/20 01:34:14;;;;;;;1.00;0.90;;;1.90;99.90;;;;;;4972813;28;20421;-90
2022/01/20 01:37:36;;;;;;;1.00;0.90;;;1.90;99.90;;;;;;4967128;28;20484;-89
2022/01/20 01:39:25;;;;;;;1.00;0.90;;;1.90;99.90;;;;;;4952335;28;20798;-90
2022/01/20 01:41:51;;;;;;;1.00;0.90;;;1.90;99.90;;;;;;4971584;28;20489;-91
2022/01/20 01:44:24;;;;;;;1.10;1.00;;;1.90;99.90;;;;;;4968481;28;20187;-90
2022/01/20 01:46:59;;;;;;;1.07;0.97;;;1.80;99.90;;;;;;4967252;28;20980;-93
2022/01/20 01:49:24;;;;;;;0.80;0.80;;;1.90;99.90;;;;;;4960159;28;20471;-91
2022/01/20 01:51:50;;;;;;;0.80;0.73;;;1.90;99.90;;;;;;4976336;28;20477;-92
2022/01/20 01:54:17;;;;;;;1.00;0.90;;;1.90;99.90;;;;;;4973047;28;20724;-92
2022/01/20 01:56:44;;;;;;;0.80;0.80;;;1.90;99.90;;;;;;4971448;28;20436;-93
2022/01/20 01:59:10;;;;;;;0.80;0.80;;;1.90;99.90;;;;;;4971753;28;20947;-93
2022/01/20 02:01:38;;;;;;;0.83;0.80;;;1.80;99.90;;;;;;4971480;28;20528;-92
2022/01/20 02:04:21;;;;;;;0.80;0.80;;;1.80;99.90;;;;;;4968350;28;20516;-92
2022/01/20 02:19:22;;;;;;;1.07;0.97;;;1.30;99.90;;;;;;4886666;29;20497;-92
2022/01/20 02:22:04;;;;;;;0.80;0.80;;;1.30;99.90;;;;;;4886016;29;20481;-93
2022/01/20 02:24:30;;;;;;;1.10;1.00;;;1.20;99.90;;;;;;4923894;29;20445;-92
2022/01/20 02:27:17;;;;;;;1.00;0.90;;;1.30;99.90;;;;;;4949288;28;20489;-93
2022/01/20 02:33:09;;;;;;;1.20;1.10;;;1.20;99.90;;;;;;4946476;28;20488;-92
2022/01/20 02:48:01;;;;;;;1.10;1.00;;;1.30;99.90;;;;;;4963660;28;20602;-93
2022/01/20 02:51:26;;;;;;;0.80;0.73;;;1.30;99.90;;;;;;4967315;28;20490;-93
2022/01/20 02:53:55;;;;;;;1.10;1.00;;;1.20;99.90;;;;;;4936514;28;20465;-94
2022/01/20 02:57:02;;;;;;;;;;;;;;;;;;;;;
2022/01/20 02:59:32;;;;;;;1.07;0.97;;;1.00;99.90;;;;;;4966814;28;20418;-94
2022/01/20 03:05:26;;;;;;;1.10;1.00;;;1.00;99.90;;;;;;4885417;29;20539;-94
2022/01/20 03:11:59;;;;;;;0.83;0.83;;;1.00;99.90;;;;;;4976887;28;20416;-94
2022/01/20 03:14:02;;;;;;;1.10;1.00;;;1.00;99.90;;;;;;4952179;28;20477;-94
2022/01/20 03:16:40;;;;;;;1.00;0.90;;;1.00;99.90;;;;;;4952919;29;20520;-94
2022/01/20 03:19:06;;;;;;;1.00;0.90;;;;;;;;;;4973685;28;20415;-94
2022/01/20 03:21:34;;;;;;;1.00;0.90;;;0.90;99.90;;;;;;4950599;28;21004;-93
2022/01/20 03:24:00;;;;;;;1.00;0.90;;;1.00;99.90;;;;;;4952970;29;20532;-94
2022/01/20 03:26:26;;;;;;;1.20;1.10;;;1.00;99.90;;;;;;4946562;28;20461;-93
2022/01/20 03:28:51;;;;;;;1.00;0.90;;;1.10;99.90;;;;;;4958542;28;20622;-94
2022/01/20 03:31:17;;;;;;;1.00;0.90;;;1.10;99.90;;;;;;4953415;28;20190;-93
2022/01/20 03:33:45;;;;;;;1.00;0.90;;;1.10;99.90;;;;;;4955325;28;20266;-94
2022/01/20 03:36:53;;;;;;;1.10;1.00;;;1.10;99.90;;;;;;4954099;29;20718;-94
2022/01/20 03:39:14;;;;;;;0.90;0.90;;;1.10;99.90;;;;;;4963011;28;20437;-94
2022/01/20 03:41:40;;;;;;;1.07;0.97;;;1.10;99.90;;;;;;4945446;28;20478;-93
2022/01/20 03:44:06;;;;;;;1.00;0.90;;;1.10;99.90;;;;;;4950034;29;20458;-93
2022/01/20 03:47:03;;;;;;;1.03;0.93;;;1.00;99.90;;;;;;4974006;28;20229;-93
2022/01/20 03:53:02;;;;;;;0.97;0.90;;;0.90;99.90;;;;;;4969428;28;20660;-94
2022/01/20 03:58:58;;;;;;;0.87;0.87;;;0.90;99.90;;;;;;4879632;29;20453;-93
2022/01/20 04:08:38;;;;;;;1.00;0.90;;;1.00;99.90;;;;;;4858448;29;20439;-93
2022/01/20 04:15:10;;;;;;;1.10;1.00;;;1.00;99.90;;;;;;4853872;29;20439;-93
2022/01/20 04:18:11;;;;;;;1.10;1.00;;;1.00;99.90;;;;;;4808077;29;20451;-94
2022/01/20 04:24:01;;;;;;;0.83;0.83;;;1.10;99.90;;;;;;4851202;29;20466;-94
2022/01/20 04:26:28;;;;;;;1.10;1.00;;;1.00;99.90;;;;;;4874318;29;20471;-94
2022/01/20 04:28:57;;;;;;;1.00;0.90;;;1.00;99.90;;;;;;4842548;29;20991;-93
2022/01/20 04:31:29;;;;;;;0.80;0.70;;;1.10;99.90;;;;;;4859060;29;20543;-94
2022/01/20 04:33:58;;;;;;;1.10;1.00;;;1.10;99.90;;;;;;4848385;29;20461;-93
2022/01/20 04:36:30;;;;;;;1.00;0.90;;;1.10;99.90;;;;;;4951957;28;20426;-93
2022/01/20 04:43:05;;;;;;;1.00;0.90;;;1.10;99.90;;;;;;4961738;28;20991;-93
2022/01/20 04:45:58;;;;;;;1.07;0.97;;;1.20;99.90;;;;;;4943563;28;20454;-95
2022/01/20 05:02:31;;;;;;;1.20;1.10;;;1.20;99.90;;;;;;4959790;28;20476;-93
2022/01/20 05:04:59;;;;;;;1.10;1.00;;;1.10;99.90;;;;;;4952499;28;20437;-93
2022/01/20 05:07:27;;;;;;;1.13;1.03;;;1.20;99.90;;;;;;4950817;28;20593;-92
2022/01/20 05:09:55;;;;;;;1.10;1.00;;;1.10;99.90;;;;;;4948075;29;20958;-93
2022/01/20 05:12:27;;;;;;;0.97;0.90;;;1.10;99.90;;;;;;4955798;28;20440;-92
2022/01/20 05:14:54;;;;;;;1.03;0.93;;;1.10;99.90;;;;;;4953976;28;20453;-93
2022/01/20 05:17:23;;;;;;;1.20;1.10;;;1.00;99.90;;;;;;4939569;29;20446;-94
2022/01/20 05:19:48;;;;;;;1.00;0.90;;;1.10;99.90;;;;;;4945135;28;20477;-94
2022/01/20 05:22:14;;;;;;;1.07;0.97;;;1.00;99.90;;;;;;4957298;28;20513;-94
2022/01/20 05:24:39;;;;;;;1.00;0.90;;;1.00;99.90;;;;;;4948318;28;20273;-94
2022/01/20 05:27:05;;;;;;;1.00;0.90;;;1.00;99.90;;;;;;4956684;28;20599;-94
2022/01/20 05:29:31;;;;;;;0.97;0.90;;;1.10;99.90;;;;;;4953511;29;20274;-94
2022/01/20 05:35:07;;;;;;;1.07;0.97;;;1.10;99.90;;;;;;4948941;28;20202;-95
2022/01/20 05:37:33;;;;;;;0.80;0.80;;;1.10;99.90;;;;;;4965762;28;20446;-94
2022/01/20 05:39:59;;;;;;;1.10;1.00;;;1.10;99.90;;;;;;4957411;28;20429;-94
2022/01/20 05:42:27;;;;;;;1.13;1.03;;;1.10;99.90;;;;;;4946241;29;20577;-94
2022/01/20 05:44:53;;;;;;;1.00;0.90;;;1.20;99.90;;;;;;4973964;28;21865;-94
2022/01/20 05:47:26;;;;;;;0.90;0.90;;;1.10;99.90;;;;;;4945143;28;20766;-94
2022/01/20 05:49:52;;;;;;;1.10;1.00;;;1.10;99.90;;;;;;4956791;28;20200;-94
2022/01/20 05:52:19;;;;;;;1.20;1.10;;;1.10;99.90;;;;;;4953224;28;20627;-94
2022/01/20 05:54:45;;;;;;;0.93;0.90;;;1.10;99.90;;;;;;4955556;28;20236;-93
2022/01/20 05:57:11;;;;;;;1.20;1.10;;;1.20;99.90;;;;;;4944596;29;20533;-92
2022/01/20 05:59:37;;;;;;;1.03;0.93;;;1.20;99.90;;;;;;4949562;28;20446;-94
2022/01/20 06:02:11;;;;;;;0.83;0.83;;;1.10;99.90;;;;;;4986472;28;21035;-93
2022/01/20 06:04:36;;;;;;;0.97;0.90;;;1.10;99.90;;;;;;4954683;28;20455;-94
2022/01/20 06:07:02;;;;;;;1.20;1.10;;;1.10;99.90;;;;;;4945754;29;20950;-93
2022/01/20 06:09:28;;;;;;;1.00;0.90;;;1.30;99.90;;;;;;4949743;28;20199;-93
2022/01/20 06:11:53;;;;;;;0.80;0.80;;;1.30;99.90;;;;;;4958020;28;20186;-94
2022/01/20 06:14:44;;;;;;;0.83;0.83;;;1.20;99.90;;;;;;4952299;28;20217;-94
2022/01/20 06:17:10;;;;;;;0.87;0.87;;;1.20;99.90;;;;;;4955871;28;20186;-92
2022/01/20 06:19:39;;;;;;;1.00;0.90;;;1.20;99.90;;;;;;4955443;28;20437;-93
2022/01/20 06:22:13;;;;;;;1.03;0.93;;;1.20;99.90;;;;;;4955294;28;20300;-93
2022/01/20 06:24:40;;;;;;;1.30;1.20;;;1.20;99.90;;;;;;4951861;29;20537;-93
2022/01/20 06:27:13;;;;;;;1.00;0.90;;;1.20;99.90;;;;;;4942478;28;21025;-93
2022/01/20 06:29:39;;;;;;;1.00;0.90;;;1.20;99.90;;;;;;4969279;28;20449;-93
2022/01/20 06:32:05;;;;;;;0.93;0.87;;;1.20;99.90;;;;;;4977398;28;20440;-94
2022/01/20 06:38:02;;;;;;;1.00;0.90;;;1.20;99.90;;;;;;4893899;29;20500;-93
2022/01/20 06:40:28;;;;;;;1.00;0.90;;;1.20;99.90;;;;;;4917152;29;20517;-94
2022/01/20 06:42:54;;;;;;;1.00;0.90;;;1.20;99.90;;;;;;4960123;28;20490;-93
2022/01/20 06:49:34;;;;;;;0.80;0.80;;;1.20;99.90;;;;;;4865335;29;20205;-91
2022/01/20 06:51:59;;;;;;;1.10;1.00;;;1.20;99.90;;;;;;4947733;28;20480;-95
2022/01/20 06:54:42;;;;;;;1.10;1.00;;;1.20;99.90;;;;;;4975778;28;20818;-93
2022/01/20 06:57:07;;;;;;;1.07;0.97;;;1.20;99.90;;;;;;4958940;29;20194;-95
2022/01/20 06:59:33;;;;;;;1.10;1.00;;;1.20;99.90;;;;;;4978190;28;20795;-95
2022/01/20 07:01:59;;;;;;;1.00;0.90;;;1.20;99.90;;;;;;4954498;28;20205;-94
2022/01/20 07:04:27;;;;;;;1.00;0.90;;;1.20;99.90;;;;;;4982770;28;20215;-95
2022/01/20 07:06:53;;;;;;;1.03;0.93;;;1.20;99.90;;;;;;4977877;28;20246;-96
2022/01/20 07:09:41;;;;;;;;;;;;;;;;;;;;;
2022/01/20 07:12:08;;;;;;;1.00;0.90;;;1.20;99.90;;;;;;4969134;28;20512;-94
2022/01/20 07:14:54;;;;;;;1.10;1.00;;;1.20;99.90;;;;;;4978065;28;20468;-95
2022/01/20 07:20:42;;;;;;;1.10;1.00;;;1.20;99.90;;;;;;4983135;28;20433;-95
2022/01/20 07:23:07;;;;;;;1.10;1.00;;;1.20;99.90;;;;;;4987049;28;20472;-95
2022/01/20 07:25:33;;;;;;;1.13;1.03;;;1.10;99.90;;;;;;4993221;28;20247;-95
2022/01/20 07:27:59;;;;;;;1.10;1.00;;;1.10;99.90;;;;;;4983705;28;20276;-96
2022/01/20 07:30:24;;;;;;;0.80;0.80;;;1.10;99.90;;;;;;4961107;28;20218;-95
2022/01/20 07:32:50;;;;;;;1.07;0.97;;;1.10;99.90;;;;;;4968538;28;20220;-94
2022/01/20 07:35:15;;;;;;;0.80;0.80;;;1.10;99.90;;;;;;4957692;28;20651;-89
2022/01/20 07:37:41;;;;;;;1.00;0.90;;;1.00;99.90;;;;;;4968184;28;20194;-87
2022/01/20 07:40:07;;;;;;;1.00;0.90;;;1.10;99.90;;;;;;4970459;28;20554;-89
2022/01/20 07:42:32;;;;;;;1.10;1.00;;;1.10;99.90;;;;;;4971315;28;20229;-91
2022/01/20 07:44:58;;;;;;;0.90;0.90;;;1.00;99.90;;;;;;4974474;28;20445;-96
2022/01/20 07:47:34;;;;;;;1.00;0.90;;;1.10;99.90;;;;;;4968708;28;20187;-96
2022/01/20 07:50:02;;;;;;;1.10;1.00;;;1.20;99.90;;;;;;4968645;28;20194;-96
2022/01/20 07:52:28;;;;;;;0.80;0.70;;;1.20;99.90;;;;;;4961557;28;20460;-96
2022/01/20 07:54:53;;;;;;;1.00;0.90;;;1.10;99.90;;;;;;4982440;28;20445;-95
2022/01/20 07:57:19;;;;;;;0.80;0.80;;;1.20;99.90;;;;;;4964959;28;21001;-96
2022/01/20 07:59:46;;;;;;;0.90;0.80;;;1.20;99.90;;;;;;4969960;28;20170;-96
2022/01/20 08:02:12;;;;;;;1.00;0.90;;;1.20;99.90;;;;;;4970763;28;20214;-96
2022/01/20 08:04:37;;;;;;;1.03;0.93;;;1.20;99.90;;;;;;4967502;28;21024;-96
2022/01/20 08:07:03;;;;;;;0.80;0.70;;;1.20;99.90;;;;;;4991174;28;20185;-96
2022/01/20 08:09:29;;;;;;;1.10;1.00;;;1.20;99.90;;;;;;4986928;28;20186;-95
2022/01/20 08:11:54;;;;;;;0.80;0.80;;;1.20;99.90;;;;;;4976126;28;20190;-95
2022/01/20 08:14:20;;;;;;;1.00;0.90;;;;;;;;;;4981337;28;20198;-95
2022/01/20 08:16:46;;;;;;;1.00;0.90;;;1.20;99.90;;;;;;4981823;28;20194;-96
2022/01/20 08:19:11;;;;;;;1.00;0.90;;;1.20;99.90;;;;;;4976404;28;20936;-95
2022/01/20 08:21:37;;;;;;;1.00;0.90;;;1.30;99.90;;;;;;4962845;28;20186;-94
2022/01/20 08:24:02;;;;;;;1.10;1.00;;;1.40;99.90;;;;;;4971217;28;20197;-95
2022/01/20 08:26:28;;;;;;;1.17;1.07;;;1.40;99.90;;;;;;4957826;28;20646;-95
2022/01/20 08:28:53;;;;;;;0.93;0.83;;;1.50;99.90;;;;;;4975408;28;20240;-94
2022/01/20 08:31:19;;;;;;;0.80;0.80;;;1.50;99.90;;;;;;4968603;28;20190;-94
2022/01/20 08:33:46;;;;;;;1.00;0.90;;;1.60;99.90;;;;;;4954319;28;20201;-92
2022/01/20 08:36:11;;;;;;;1.10;1.00;;;1.70;99.90;;;;;;4972454;28;20200;-93
2022/01/20 08:38:37;;;;;;;0.80;0.80;;;1.80;99.90;;;;;;4980570;28;20920;-93
2022/01/20 08:41:03;;;;;;;1.03;0.93;;;1.90;99.90;;;;;;4971678;28;20189;-90
2022/01/20 08:43:28;;;;;;;0.93;0.83;;;2.00;99.90;;;;;;4970905;28;20249;-91
2022/01/20 08:45:54;;;;;;;0.97;0.87;;;2.20;99.90;;;;;;4952948;28;20190;-89
2022/01/20 08:48:20;;;;;;;0.93;0.87;;;2.30;99.90;;;;;;4964062;28;20201;-90
2022/01/20 08:50:45;;;;;;;0.80;0.70;;;2.30;99.90;;;;;;4951064;28;20276;-89
2022/01/20 08:53:11;;;;;;;0.80;0.70;;;2.40;99.90;;;;;;4946562;28;20183;-90
2022/01/20 08:55:37;;;;;;;0.80;0.80;;;2.40;99.90;;;;;;4953646;28;20174;-90
2022/01/20 08:58:04;;;;;;;0.90;0.80;;;2.50;99.90;;;;;;4946987;28;20452;-91
2022/01/20 09:00:32;;;;;;;0.83;0.80;;;2.60;99.90;;;;;;4949305;28;20531;-91
2022/01/20 09:02:58;;;;;;;0.90;0.80;;;2.60;99.90;;;;;;4955620;28;20505;-91
2022/01/20 09:05:25;;;;;;;0.90;0.80;;;2.80;99.90;;;;;;4973957;28;20469;-91
2022/01/20 09:07:51;;;;;;;1.00;0.90;;;2.80;99.90;;;;;;4954492;28;20537;-91
2022/01/20 09:10:20;;;;;;;0.83;0.80;;;2.90;99.90;;;;;;4973414;28;20532;-90
2022/01/20 09:15:34;;;;;;;0.80;0.80;;;3.10;99.90;;;;;;4972447;28;20443;-90
2022/01/20 09:18:04;;;;;;;0.87;0.80;;;3.20;99.90;;;;;;4969732;28;20446;-90
2022/01/20 09:20:34;;;;;;;0.80;0.73;;;3.30;99.90;;;;;;4954455;28;20516;-90
2022/01/20 09:23:01;;;;;;;0.87;0.70;;;3.40;99.90;;;;;;4967408;28;20947;-88
2022/01/20 09:25:27;;;;;;;0.97;0.87;;;3.50;99.90;;;;;;4938203;28;20534;-89
2022/01/20 09:27:55;;;;;;;0.90;0.77;;;3.60;99.90;;;;;;4970875;28;21017;-89
2022/01/20 09:30:22;;;;;;;0.80;0.70;;;3.50;99.90;;;;;;4943077;28;20950;-89
2022/01/20 09:33:00;;;;;;;1.00;0.90;;;3.20;99.90;;;;;;4967748;28;21001;-89
2022/01/20 09:35:29;;;;;;;0.93;0.83;;;2.90;99.90;;;;;;4967136;28;20603;-85
2022/01/20 09:37:54;;;;;;;0.80;0.70;;;2.70;99.90;;;;;;4944824;28;20445;-86
2022/01/20 09:40:20;;;;;;;0.97;0.87;;;2.50;99.90;;;;;;4980232;28;20445;-85
2022/01/20 09:42:46;;;;;;;0.87;0.80;;;2.40;99.90;;;;;;4970602;28;20222;-88
2022/01/20 09:45:13;;;;;;;0.90;0.87;;;2.40;99.90;;;;;;4969589;28;20190;-87
2022/01/20 09:47:41;;;;;;;1.03;0.93;;;2.40;99.90;;;;;;4961053;28;20658;-87
2022/01/20 09:50:07;;;;;;;1.00;0.90;;;2.40;99.90;;;;;;4953345;28;21136;-86
2022/01/20 09:52:32;;;;;;;0.83;0.80;;;2.90;99.90;;;;;;4967078;28;20457;-87
2022/01/20 09:54:58;;;;;;;0.87;0.83;;;3.20;99.90;;;;;;4956854;28;20638;-87
2022/01/20 09:57:23;;;;;;;0.97;0.87;;;3.30;99.90;;;;;;4970990;28;20189;-86
2022/01/20 09:59:50;;;;;;;0.80;0.80;;;3.40;99.90;;;;;;4971433;28;20201;-86
2022/01/20 10:02:18;;;;;;;0.80;0.80;;;3.50;99.90;;;;;;4959533;28;20795;-87
2022/01/20 10:04:44;;;;;;;0.90;0.80;;;3.60;99.90;;;;;;4984476;28;20436;-88
2022/01/20 10:07:13;;;;;;;0.90;0.80;;;3.50;99.90;;;;;;4976344;28;20451;-86
2022/01/20 10:09:41;;;;;;;2.60;1.57;;;3.90;99.90;;;;;;4984610;28;20807;-87
2022/01/20 10:12:08;;;;;;;0.80;0.80;;;3.90;99.90;;;;;;4983102;28;20439;-87
2022/01/20 10:14:47;;;;;;;0.80;0.60;;;4.00;99.90;;;;;;4982367;28;20917;-88
2022/01/20 10:17:24;;;;;;;0.90;0.80;;;4.20;99.90;;;;;;4967945;28;20451;-86
2022/01/20 10:20:03;;;;;;;0.80;0.70;;;4.30;99.90;;;;;;4974744;28;21167;-88
2022/01/20 10:22:31;;;;;;;0.90;0.80;;;3.80;99.90;;;;;;4965628;28;20476;-87
2022/01/20 10:25:12;;;;;;;0.80;0.70;;;3.80;99.90;;;;;;4973838;28;20443;-88
2022/01/20 10:27:53;;;;;;;0.80;0.80;;;3.80;99.90;;;;;;4960573;28;20476;-87
2022/01/20 10:30:20;;;;;;;0.87;0.80;;;3.50;99.90;;;;;;4952772;28;20523;-87
2022/01/20 10:32:48;;;;;;;0.87;0.80;;;3.50;99.90;;;;;;4942086;28;20453;-88
2022/01/20 10:35:18;;;;;;;0.90;0.80;;;3.50;99.90;;;;;;4962951;28;20523;-88
2022/01/20 10:38:10;;;;;;;0.87;0.80;;;3.40;99.90;;;;;;4961469;28;20441;-87
2022/01/20 10:40:51;;;;;;;1.07;0.97;;;3.30;99.90;;;;;;4969022;28;20441;-87
2022/01/20 10:43:36;;;;;;;1.30;1.20;;;3.60;99.90;;;;;;4944362;28;20483;-88
2022/01/20 10:46:23;;;;;;;0.90;0.80;;;3.70;99.90;;;;;;4966673;28;21090;-87
2022/01/20 10:48:58;;;;;;;6.40;1.63;;;4.00;99.90;;;;;;4965469;28;20941;-87
2022/01/20 10:51:26;;;;;;;0.83;0.80;;;4.60;99.90;;;;;;4965564;28;20480;-87
2022/01/20 10:54:04;;;;;;;0.90;0.80;;;4.80;99.90;;;;;;4968056;28;20872;-87
2022/01/20 10:56:30;;;;;;;0.90;0.80;;;4.90;99.90;;;;;;4950260;28;20847;-88
2022/01/20 10:59:06;;;;;;;0.90;0.77;;;4.40;99.90;;;;;;4952547;28;20555;-87
2022/01/20 11:01:32;;;;;;;0.87;0.80;;;3.80;99.90;;;;;;4943499;28;20469;-87
2022/01/20 11:03:58;;;;;;;0.80;0.73;;;4.00;99.90;;;;;;4953130;28;20457;-88
2022/01/20 11:06:24;;;;;;;0.90;0.80;;;4.40;99.90;;;;;;4969415;28;20194;-89
2022/01/20 11:08:51;;;;;;;0.90;0.80;;;4.80;99.90;;;;;;4957984;28;20460;-88
2022/01/20 11:11:16;;;;;;;0.90;0.80;;;4.40;99.90;;;;;;4974496;28;20186;-88
2022/01/20 11:13:42;;;;;;;0.80;0.80;;;4.40;99.90;;;;;;4953025;28;20452;-88
2022/01/20 11:16:08;;;;;;;1.10;1.00;;;4.10;99.90;;;;;;4955457;28;20281;-88
2022/01/20 11:18:34;;;;;;;0.90;0.80;;;3.80;99.90;;;;;;4976171;28;20174;-86
2022/01/20 11:21:02;;;;;;;0.90;0.80;;;4.10;99.90;;;;;;4970772;28;20453;-87
2022/01/20 11:23:39;;;;;;;0.90;0.80;;;4.70;99.90;;;;;;4964510;28;20496;-87
2022/01/20 11:26:06;;;;;;;0.83;0.73;;;5.30;99.90;;;;;;4964429;28;20429;-87
2022/01/20 11:28:32;;;;;;;0.80;0.70;;;5.60;99.90;;;;;;4962016;28;20512;-87
2022/01/20 11:30:57;;;;;;;0.90;0.80;;;5.20;99.90;;;;;;4981483;28;20471;-88
2022/01/20 11:33:39;;;;;;;0.83;0.70;;;4.70;99.90;;;;;;4975935;28;20218;-88
2022/01/20 11:36:08;;;;;;;0.90;0.80;;;4.40;99.90;;;;;;4967974;28;20220;-87
2022/01/20 11:38:45;;;;;;;0.80;0.73;;;5.00;99.90;;;;;;4973692;28;20540;-88
2022/01/20 11:41:13;;;;;;;0.90;0.70;;;5.20;99.90;;;;;;4968293;28;20936;-85
2022/01/20 11:43:45;;;;;;;0.87;0.70;;;5.30;99.90;;;;;;4959655;28;20481;-86
2022/01/20 11:46:14;;;;;;;0.90;0.80;;;4.80;99.90;;;;;;4974770;28;20584;-86
2022/01/20 11:48:50;;;;;;;0.80;0.80;;;4.80;99.90;;;;;;4952699;28;20461;-88
2022/01/20 11:51:18;;;;;;;0.80;0.70;;;4.60;99.90;;;;;;4975710;28;21354;-87
2022/01/20 11:53:54;;;;;;;0.90;0.80;;;4.30;99.90;;;;;;4979394;28;20432;-87
2022/01/20 11:56:35;;;;;;;0.80;0.70;;;4.20;99.90;;;;;;4958615;28;20453;-88
2022/01/20 11:59:03;;;;;;;0.80;0.77;;;4.10;99.90;;;;;;4974530;28;20507;-87
2022/01/20 12:01:30;;;;;;;0.80;0.70;;;4.00;99.90;;;;;;4955768;28;20449;-88
2022/01/20 12:03:57;;;;;;;0.90;0.80;;;4.00;99.90;;;;;;4956087;28;20461;-88
2022/01/20 12:06:24;;;;;;;0.90;0.80;;;3.70;99.90;;;;;;4961822;28;20538;-88
2022/01/20 12:08:56;;;;;;;1.00;0.90;;;3.70;99.90;;;;;;4971098;28;20457;-88
2022/01/20 12:11:34;;;;;;;0.87;0.80;;;3.60;99.90;;;;;;4974533;28;20444;-87
2022/01/20 12:14:00;;;;;;;1.77;1.67;;;3.50;99.90;;;;;;4954907;28;20444;-88
2022/01/20 12:16:25;;;;;;;1.47;1.30;;;3.50;99.90;;;;;;4972607;28;20817;-88
2022/01/20 12:18:56;;;;;;;0.90;0.80;;;3.60;99.90;;;;;;4971056;28;20272;-89
2022/01/20 12:21:23;;;;;;;0.90;0.80;;;3.20;99.90;;;;;;4966475;28;20218;-89
2022/01/20 12:23:50;;;;;;;1.00;0.90;;;3.10;99.90;;;;;;4952583;28;20907;-89
2022/01/20 12:26:16;;;;;;;1.07;0.97;;;3.00;99.90;;;;;;4971126;28;20430;-88
2022/01/20 12:28:42;;;;;;;1.10;1.00;;;2.90;99.90;;;;;;4975505;28;20441;-89
2022/01/20 12:31:13;;;;;;;0.90;0.80;;;2.80;99.90;;;;;;4970446;28;20240;-88
2022/01/20 12:33:43;;;;;;;1.00;0.90;;;2.70;99.90;;;;;;4963461;28;20192;-89
2022/01/20 12:36:16;;;;;;;0.90;0.80;;;2.60;99.90;;;;;;4970636;28;20441;-89
2022/01/20 12:38:52;;;;;;;0.80;0.80;;;2.80;99.90;;;;;;4952946;28;20586;-89
2022/01/20 12:41:24;;;;;;;0.80;0.77;;;3.50;99.90;;;;;;4972240;28;20421;-88
2022/01/20 12:44:04;;;;;;;0.80;0.70;;;3.90;99.90;;;;;;4954960;28;20489;-88
2022/01/20 12:46:32;;;;;;;0.90;0.80;;;3.80;99.90;;;;;;4955451;28;20445;-86
2022/01/20 12:49:11;;;;;;;2.30;2.20;;;3.60;99.90;;;;;;4951714;28;20482;-88
2022/01/20 12:51:48;;;;;;;0.90;0.80;;;4.60;99.90;;;;;;4970535;28;20544;-88
2022/01/20 12:54:27;;;;;;;0.80;0.70;;;5.80;99.90;;;;;;4955702;28;20929;-88
2022/01/20 12:56:58;;;;;;;0.80;0.70;;;6.70;99.90;;;;;;4969166;28;20445;-88
2022/01/20 12:59:35;;;;;;;0.80;0.60;;;7.30;99.90;;;;;;4973065;28;20513;-86
2022/01/20 13:02:07;;;;;;;0.80;0.60;;;7.60;99.90;;;;;;4971639;28;20534;-89
2022/01/20 13:04:36;;;;;;;0.90;0.60;;;7.60;99.90;;;;;;4976054;28;20452;-88
2022/01/20 13:07:03;;;;;;;0.90;0.60;;;8.10;99.90;;;;;;4958100;28;20965;-88
2022/01/20 13:09:44;;;;;;;0.90;0.60;;;8.30;99.90;;;;;;4967092;28;20454;-89
2022/01/20 13:12:12;;;;;;;0.90;0.60;;;8.80;99.90;;;;;;4971008;28;20440;-91
2022/01/20 13:14:49;;;;;;;0.90;0.50;;;9.20;99.90;;;;;;4954899;28;20441;-90
2022/01/20 13:17:26;;;;;;;0.90;0.50;;;9.30;99.90;;;;;;4957089;28;20436;-88
2022/01/20 13:19:55;;;;;;;0.90;0.57;;;9.70;99.90;;;;;;4971112;28;20440;-88
2022/01/20 13:22:32;;;;;;;0.90;0.50;;;9.90;99.90;;;;;;4973386;28;20953;-90
2022/01/20 13:25:12;;;;;;;3.27;1.47;;;10.00;99.90;;;;;;4971205;28;20485;-90
2022/01/20 13:27:50;;;;;;;0.90;0.50;;;9.70;99.90;;;;;;4971719;28;20465;-88
2022/01/20 13:30:40;;;;;;;0.83;0.50;;;9.80;99.90;;;;;;4969095;28;20564;-89
2022/01/20 13:33:14;;;;;;;0.87;0.50;;;10.00;99.90;;;;;;4952573;28;20446;-88
2022/01/20 13:35:42;;;;;;;0.90;0.50;;;9.50;99.90;;;;;;4972546;28;20536;-87
2022/01/20 13:38:08;;;;;;;0.87;0.50;;;9.30;99.90;;;;;;4972339;28;20876;-87
2022/01/20 13:40:39;;;;;;;0.80;0.50;;;9.90;99.90;;;;;;4979604;28;20409;-85
2022/01/20 13:45:41;;;;;;;0.90;0.60;;;8.60;99.90;;;;;;4962541;28;20437;-88
2022/01/20 13:48:07;;;;;;;0.90;0.60;;;8.40;99.90;;;;;;4956624;28;20448;-87
2022/01/20 13:50:39;;;;;;;0.90;0.50;;;9.30;99.90;;;;;;4972254;28;20529;-84
2022/01/20 13:53:16;;;;;;;0.80;0.50;;;9.40;99.90;;;;;;4970978;28;20477;-87
2022/01/20 13:55:44;;;;;;;0.90;0.60;;;8.00;99.90;;;;;;4970914;28;20537;-87
2022/01/20 13:58:24;;;;;;;0.90;0.60;;;7.30;99.90;;;;;;4951575;28;20495;-88
2022/01/20 14:00:51;;;;;;;0.80;0.60;;;7.70;99.90;;;;;;4949483;28;20480;-87
2022/01/20 14:03:17;;;;;;;0.90;0.60;;;8.60;99.90;;;;;;4961889;28;20494;-86
2022/01/20 14:05:44;;;;;;;0.90;0.60;;;8.00;99.90;;;;;;4953574;28;20441;-87
2022/01/20 14:08:10;;;;;;;0.90;0.60;;;8.50;99.90;;;;;;4963663;28;20233;-87
2022/01/20 14:10:35;;;;;;;0.80;0.60;;;8.00;99.90;;;;;;4967885;28;20469;-87
2022/01/20 14:13:01;;;;;;;0.80;0.60;;;8.60;99.90;;;;;;4953329;28;20223;-87
2022/01/20 14:15:27;;;;;;;0.90;0.60;;;9.00;99.90;;;;;;4970830;28;20182;-87
2022/01/20 14:17:56;;;;;;;0.90;0.60;;;9.10;99.90;;;;;;4946431;28;20260;-87
2022/01/20 14:20:27;;;;;;;0.80;0.50;;;8.50;99.90;;;;;;4969940;28;20929;-87
2022/01/20 14:22:55;;;;;;;0.90;0.60;;;8.80;99.90;;;;;;4956533;28;20589;-87
2022/01/20 14:25:22;;;;;;;0.90;0.50;;;9.00;99.90;;;;;;4967561;28;20457;-88
2022/01/20 14:27:49;;;;;;;0.90;0.50;;;9.10;99.90;;;;;;4956805;28;20520;-87
2022/01/20 14:30:16;;;;;;;0.87;0.50;;;8.80;99.90;;;;;;4964002;28;20957;-87
2022/01/20 14:32:43;;;;;;;1.07;0.70;;;8.40;99.90;;;;;;4952589;28;20433;-87
2022/01/20 14:35:09;;;;;;;3.10;0.87;;;8.90;99.90;;;;;;4958227;28;20438;-87
2022/01/20 14:37:39;;;;;;;0.80;0.50;;;9.30;99.90;;;;;;4953984;28;20449;-87
2022/01/20 14:40:09;;;;;;;0.83;0.50;;;8.20;99.90;;;;;;4934986;29;20508;-86
2022/01/20 14:42:35;;;;;;;0.90;0.60;;;7.60;99.90;;;;;;4947037;28;20477;-87
2022/01/20 14:45:00;;;;;;;2.17;0.97;;;6.40;99.90;;;;;;4974562;28;20430;-89
2022/01/20 14:47:26;;;;;;;1.67;1.07;;;5.40;99.90;;;;;;4966675;28;20453;-89
2022/01/20 14:49:51;;;;;;;0.87;0.60;;;5.20;99.90;;;;;;4976314;28;20277;-89
2022/01/20 14:52:17;;;;;;;0.90;0.70;;;4.50;99.90;;;;;;4971086;28;20296;-89
2022/01/20 14:54:42;;;;;;;0.87;0.70;;;4.60;99.90;;;;;;4976593;28;20209;-89
2022/01/20 14:57:08;;;;;;;0.80;0.63;;;4.30;99.90;;;;;;4962960;28;20198;-89
2022/01/20 14:59:34;;;;;;;0.90;0.80;;;4.10;99.90;;;;;;4974572;28;20237;-89
2022/01/20 15:02:03;;;;;;;0.90;0.80;;;3.70;99.90;;;;;;4974511;28;20336;-89
2022/01/20 15:04:32;;;;;;;0.90;0.80;;;3.60;99.90;;;;;;4975964;28;20188;-90
2022/01/20 15:06:57;;;;;;;0.90;0.80;;;3.60;99.90;;;;;;4953482;28;20544;-89
2022/01/20 15:09:23;;;;;;;21.53;3.50;;;3.70;99.90;;;;;;4974207;28;20504;-89
2022/01/20 15:11:49;;;;;;;0.80;0.70;;;3.50;99.90;;;;;;4974453;28;20194;-89
2022/01/20 15:14:14;;;;;;;0.93;0.83;;;3.50;99.90;;;;;;4962621;28;20230;-89